sensor_id;sensor_type;location;lat;lon;timestamp;P1;durP1;ratioP1;P2;durP2;ratioP2
23288;SDS011;11813;50.834;4.280;2022-10-31T00:01:16;16.83;;;9.00;;
23288;SDS011;11813;50.834;4.280;2022-10-31T00:03:53;13.17;;;9.10;;
23288;SDS011;11813;50.834;4.280;2022-10-31T00:06:19;17.57;;;8.57;;
23288;SDS011;11813;50.834;4.280;2022-10-31T00:08:46;16.27;;;9.70;;
23288;SDS011;11813;50.834;4.280;2022-10-31T00:11:12;17.30;;;9.40;;
23288;SDS011;11813;50.834;4.280;2022-10-31T00:13:38;16.73;;;9.13;;
23288;SDS011;11813;50.834;4.280;2022-10-31T00:16:04;18.13;;;9.47;;
23288;SDS011;11813;50.834;4.280;2022-10-31T00:18:31;15.43;;;9.97;;
23288;SDS011;11813;50.834;4.280;2022-10-31T00:21:00;14.70;;;10.00;;
23288;SDS011;11813;50.834;4.280;2022-10-31T00:23:27;14.00;;;9.80;;
23288;SDS011;11813;50.834;4.280;2022-10-31T00:25:52;11.70;;;9.03;;
23288;SDS011;11813;50.834;4.280;2022-10-31T00:28:18;16.13;;;9.90;;
23288;SDS011;11813;50.834;4.280;2022-10-31T00:30:43;13.70;;;9.43;;
23288;SDS011;11813;50.834;4.280;2022-10-31T00:33:09;13.03;;;9.10;;
23288;SDS011;11813;50.834;4.280;2022-10-31T00:35:34;14.07;;;8.90;;
23288;SDS011;11813;50.834;4.280;2022-10-31T00:38:00;14.37;;;9.03;;
23288;SDS011;11813;50.834;4.280;2022-10-31T00:40:26;14.60;;;8.67;;
23288;SDS011;11813;50.834;4.280;2022-10-31T00:42:51;15.17;;;8.60;;
23288;SDS011;11813;50.834;4.280;2022-10-31T00:45:17;16.23;;;9.93;;
23288;SDS011;11813;50.834;4.280;2022-10-31T00:47:43;19.47;;;10.30;;
23288;SDS011;11813;50.834;4.280;2022-10-31T00:50:08;16.60;;;9.63;;
23288;SDS011;11813;50.834;4.280;2022-10-31T00:52:34;15.53;;;8.73;;
23288;SDS011;11813;50.834;4.280;2022-10-31T00:55:00;14.03;;;9.00;;
23288;SDS011;11813;50.834;4.280;2022-10-31T00:57:25;18.00;;;9.33;;
23288;SDS011;11813;50.834;4.280;2022-10-31T00:59:51;21.87;;;9.97;;
23288;SDS011;11813;50.834;4.280;2022-10-31T01:02:16;14.43;;;9.43;;
23288;SDS011;11813;50.834;4.280;2022-10-31T01:04:42;15.87;;;10.17;;
23288;SDS011;11813;50.834;4.280;2022-10-31T01:07:07;18.30;;;10.27;;
23288;SDS011;11813;50.834;4.280;2022-10-31T01:09:33;13.57;;;8.80;;
23288;SDS011;11813;50.834;4.280;2022-10-31T01:11:59;19.63;;;9.97;;
23288;SDS011;11813;50.834;4.280;2022-10-31T01:14:24;18.27;;;9.40;;
23288;SDS011;11813;50.834;4.280;2022-10-31T01:16:50;18.80;;;10.03;;
23288;SDS011;11813;50.834;4.280;2022-10-31T01:19:15;16.33;;;9.73;;
23288;SDS011;11813;50.834;4.280;2022-10-31T01:21:41;15.27;;;9.07;;
23288;SDS011;11813;50.834;4.280;2022-10-31T01:24:07;14.83;;;9.40;;
23288;SDS011;11813;50.834;4.280;2022-10-31T01:26:33;14.17;;;9.17;;
23288;SDS011;11813;50.834;4.280;2022-10-31T01:29:00;16.53;;;10.10;;
23288;SDS011;11813;50.834;4.280;2022-10-31T01:31:31;15.73;;;9.13;;
23288;SDS011;11813;50.834;4.280;2022-10-31T01:33:59;17.57;;;9.37;;
23288;SDS011;11813;50.834;4.280;2022-10-31T01:38:52;13.70;;;9.33;;
23288;SDS011;11813;50.834;4.280;2022-10-31T01:41:22;14.53;;;8.67;;
23288;SDS011;11813;50.834;4.280;2022-10-31T01:48:59;15.03;;;9.00;;
23288;SDS011;11813;50.834;4.280;2022-10-31T01:51:30;12.27;;;8.83;;
23288;SDS011;11813;50.834;4.280;2022-10-31T01:54:00;19.00;;;9.70;;
23288;SDS011;11813;50.834;4.280;2022-10-31T01:56:29;14.83;;;9.37;;
23288;SDS011;11813;50.834;4.280;2022-10-31T01:58:56;15.67;;;8.77;;
23288;SDS011;11813;50.834;4.280;2022-10-31T02:01:24;12.53;;;8.83;;
23288;SDS011;11813;50.834;4.280;2022-10-31T02:03:50;16.73;;;9.17;;
23288;SDS011;11813;50.834;4.280;2022-10-31T02:06:26;13.63;;;8.33;;
23288;SDS011;11813;50.834;4.280;2022-10-31T02:09:19;12.97;;;8.50;;
23288;SDS011;11813;50.834;4.280;2022-10-31T02:11:49;16.30;;;9.07;;
23288;SDS011;11813;50.834;4.280;2022-10-31T02:14:17;15.73;;;9.20;;
23288;SDS011;11813;50.834;4.280;2022-10-31T02:16:45;18.47;;;9.23;;
23288;SDS011;11813;50.834;4.280;2022-10-31T02:19:12;15.50;;;8.90;;
23288;SDS011;11813;50.834;4.280;2022-10-31T02:22:09;18.57;;;9.67;;
23288;SDS011;11813;50.834;4.280;2022-10-31T02:39:13;15.17;;;8.30;;
23288;SDS011;11813;50.834;4.280;2022-10-31T02:44:29;21.17;;;9.40;;
23288;SDS011;11813;50.834;4.280;2022-10-31T02:50:09;12.33;;;8.03;;
23288;SDS011;11813;50.834;4.280;2022-10-31T02:52:42;16.23;;;8.13;;
23288;SDS011;11813;50.834;4.280;2022-10-31T02:55:12;12.70;;;7.47;;
23288;SDS011;11813;50.834;4.280;2022-10-31T02:58:09;12.93;;;7.87;;
23288;SDS011;11813;50.834;4.280;2022-10-31T03:00:42;19.50;;;8.73;;
23288;SDS011;11813;50.834;4.280;2022-10-31T03:09:26;17.03;;;8.17;;
23288;SDS011;11813;50.834;4.280;2022-10-31T03:12:14;15.63;;;8.73;;
23288;SDS011;11813;50.834;4.280;2022-10-31T03:17:33;13.50;;;8.40;;
23288;SDS011;11813;50.834;4.280;2022-10-31T03:20:02;13.87;;;8.27;;
23288;SDS011;11813;50.834;4.280;2022-10-31T03:22:31;11.77;;;7.57;;
23288;SDS011;11813;50.834;4.280;2022-10-31T03:24:58;12.07;;;7.80;;
23288;SDS011;11813;50.834;4.280;2022-10-31T03:27:28;16.33;;;8.57;;
23288;SDS011;11813;50.834;4.280;2022-10-31T03:29:57;10.73;;;8.03;;
23288;SDS011;11813;50.834;4.280;2022-10-31T03:32:31;14.10;;;7.77;;
23288;SDS011;11813;50.834;4.280;2022-10-31T03:35:01;18.77;;;8.33;;
23288;SDS011;11813;50.834;4.280;2022-10-31T03:37:30;13.57;;;8.20;;
23288;SDS011;11813;50.834;4.280;2022-10-31T03:39:58;11.07;;;8.00;;
23288;SDS011;11813;50.834;4.280;2022-10-31T03:42:27;13.63;;;7.70;;
23288;SDS011;11813;50.834;4.280;2022-10-31T03:44:58;14.00;;;7.77;;
23288;SDS011;11813;50.834;4.280;2022-10-31T03:47:28;12.83;;;7.53;;
23288;SDS011;11813;50.834;4.280;2022-10-31T03:49:54;12.73;;;8.00;;
23288;SDS011;11813;50.834;4.280;2022-10-31T03:52:37;14.83;;;7.80;;
23288;SDS011;11813;50.834;4.280;2022-10-31T03:55:14;12.53;;;7.73;;
23288;SDS011;11813;50.834;4.280;2022-10-31T03:57:46;14.80;;;7.40;;
23288;SDS011;11813;50.834;4.280;2022-10-31T04:00:14;10.10;;;7.47;;
23288;SDS011;11813;50.834;4.280;2022-10-31T04:02:42;13.30;;;7.40;;
23288;SDS011;11813;50.834;4.280;2022-10-31T04:05:22;13.30;;;8.20;;
23288;SDS011;11813;50.834;4.280;2022-10-31T04:07:49;16.00;;;7.23;;
23288;SDS011;11813;50.834;4.280;2022-10-31T04:10:18;17.00;;;7.23;;
23288;SDS011;11813;50.834;4.280;2022-10-31T04:12:47;9.80;;;7.03;;
23288;SDS011;11813;50.834;4.280;2022-10-31T04:15:16;17.90;;;7.77;;
23288;SDS011;11813;50.834;4.280;2022-10-31T04:17:42;12.20;;;7.00;;
23288;SDS011;11813;50.834;4.280;2022-10-31T04:20:10;15.67;;;8.50;;
23288;SDS011;11813;50.834;4.280;2022-10-31T04:22:36;13.57;;;7.47;;
23288;SDS011;11813;50.834;4.280;2022-10-31T04:25:01;16.30;;;8.17;;
23288;SDS011;11813;50.834;4.280;2022-10-31T04:27:27;12.70;;;7.13;;
23288;SDS011;11813;50.834;4.280;2022-10-31T04:29:53;12.33;;;7.53;;
23288;SDS011;11813;50.834;4.280;2022-10-31T04:32:18;14.27;;;8.13;;
23288;SDS011;11813;50.834;4.280;2022-10-31T04:34:44;12.87;;;7.53;;
23288;SDS011;11813;50.834;4.280;2022-10-31T04:37:09;13.47;;;8.20;;
23288;SDS011;11813;50.834;4.280;2022-10-31T04:39:35;11.40;;;7.80;;
23288;SDS011;11813;50.834;4.280;2022-10-31T04:42:00;10.37;;;7.03;;
23288;SDS011;11813;50.834;4.280;2022-10-31T04:44:26;11.43;;;7.50;;
23288;SDS011;11813;50.834;4.280;2022-10-31T04:46:51;13.57;;;7.30;;
23288;SDS011;11813;50.834;4.280;2022-10-31T04:49:17;14.37;;;7.77;;
23288;SDS011;11813;50.834;4.280;2022-10-31T04:51:42;10.20;;;7.40;;
23288;SDS011;11813;50.834;4.280;2022-10-31T04:54:08;14.10;;;8.13;;
23288;SDS011;11813;50.834;4.280;2022-10-31T04:56:34;10.57;;;7.30;;
23288;SDS011;11813;50.834;4.280;2022-10-31T04:58:59;14.50;;;7.47;;
23288;SDS011;11813;50.834;4.280;2022-10-31T05:01:25;13.83;;;7.33;;
23288;SDS011;11813;50.834;4.280;2022-10-31T05:03:51;12.50;;;7.17;;
23288;SDS011;11813;50.834;4.280;2022-10-31T05:06:16;14.60;;;7.77;;
23288;SDS011;11813;50.834;4.280;2022-10-31T05:08:42;9.60;;;6.63;;
23288;SDS011;11813;50.834;4.280;2022-10-31T05:11:07;13.87;;;7.10;;
23288;SDS011;11813;50.834;4.280;2022-10-31T05:13:33;13.93;;;7.23;;
23288;SDS011;11813;50.834;4.280;2022-10-31T05:15:59;10.33;;;6.73;;
23288;SDS011;11813;50.834;4.280;2022-10-31T05:18:24;13.10;;;7.83;;
23288;SDS011;11813;50.834;4.280;2022-10-31T05:20:50;12.20;;;7.17;;
23288;SDS011;11813;50.834;4.280;2022-10-31T05:23:15;10.67;;;7.13;;
23288;SDS011;11813;50.834;4.280;2022-10-31T05:25:41;16.50;;;7.03;;
23288;SDS011;11813;50.834;4.280;2022-10-31T05:28:07;11.27;;;6.77;;
23288;SDS011;11813;50.834;4.280;2022-10-31T05:30:33;10.13;;;7.07;;
23288;SDS011;11813;50.834;4.280;2022-10-31T05:33:00;11.03;;;6.90;;
23288;SDS011;11813;50.834;4.280;2022-10-31T05:35:29;12.70;;;6.77;;
23288;SDS011;11813;50.834;4.280;2022-10-31T05:37:57;11.33;;;6.70;;
23288;SDS011;11813;50.834;4.280;2022-10-31T05:40:23;13.07;;;7.50;;
23288;SDS011;11813;50.834;4.280;2022-10-31T05:42:50;13.23;;;7.37;;
23288;SDS011;11813;50.834;4.280;2022-10-31T05:45:17;15.77;;;8.30;;
23288;SDS011;11813;50.834;4.280;2022-10-31T05:47:53;16.53;;;8.17;;
23288;SDS011;11813;50.834;4.280;2022-10-31T05:50:20;14.93;;;7.80;;
23288;SDS011;11813;50.834;4.280;2022-10-31T05:52:46;14.10;;;7.23;;
23288;SDS011;11813;50.834;4.280;2022-10-31T05:55:12;11.03;;;6.53;;
23288;SDS011;11813;50.834;4.280;2022-10-31T05:57:37;16.43;;;7.57;;
23288;SDS011;11813;50.834;4.280;2022-10-31T06:00:04;10.53;;;7.40;;
23288;SDS011;11813;50.834;4.280;2022-10-31T06:02:30;17.23;;;6.77;;
23288;SDS011;11813;50.834;4.280;2022-10-31T06:04:59;16.10;;;7.77;;
23288;SDS011;11813;50.834;4.280;2022-10-31T06:07:25;10.97;;;7.70;;
23288;SDS011;11813;50.834;4.280;2022-10-31T06:09:51;15.83;;;7.80;;
23288;SDS011;11813;50.834;4.280;2022-10-31T06:12:17;13.00;;;7.10;;
23288;SDS011;11813;50.834;4.280;2022-10-31T06:14:42;11.83;;;7.57;;
23288;SDS011;11813;50.834;4.280;2022-10-31T06:17:08;11.30;;;7.50;;
23288;SDS011;11813;50.834;4.280;2022-10-31T06:19:33;12.30;;;8.30;;
23288;SDS011;11813;50.834;4.280;2022-10-31T06:21:59;19.73;;;9.33;;
23288;SDS011;11813;50.834;4.280;2022-10-31T06:24:24;18.17;;;9.63;;
23288;SDS011;11813;50.834;4.280;2022-10-31T06:26:50;17.27;;;8.40;;
23288;SDS011;11813;50.834;4.280;2022-10-31T06:29:15;15.17;;;8.83;;
23288;SDS011;11813;50.834;4.280;2022-10-31T06:31:41;13.07;;;8.47;;
23288;SDS011;11813;50.834;4.280;2022-10-31T06:34:06;19.57;;;9.63;;
23288;SDS011;11813;50.834;4.280;2022-10-31T06:36:32;12.90;;;8.80;;
23288;SDS011;11813;50.834;4.280;2022-10-31T06:38:57;15.37;;;8.77;;
23288;SDS011;11813;50.834;4.280;2022-10-31T06:41:23;22.60;;;9.53;;
23288;SDS011;11813;50.834;4.280;2022-10-31T06:43:49;17.20;;;9.43;;
23288;SDS011;11813;50.834;4.280;2022-10-31T06:46:14;17.23;;;9.13;;
23288;SDS011;11813;50.834;4.280;2022-10-31T06:48:40;17.80;;;9.97;;
23288;SDS011;11813;50.834;4.280;2022-10-31T06:51:07;17.83;;;10.07;;
23288;SDS011;11813;50.834;4.280;2022-10-31T06:53:32;23.63;;;12.43;;
23288;SDS011;11813;50.834;4.280;2022-10-31T06:55:58;18.93;;;12.37;;
23288;SDS011;11813;50.834;4.280;2022-10-31T06:58:24;19.07;;;10.63;;
23288;SDS011;11813;50.834;4.280;2022-10-31T07:00:49;23.27;;;9.63;;
23288;SDS011;11813;50.834;4.280;2022-10-31T07:03:15;17.93;;;9.13;;
23288;SDS011;11813;50.834;4.280;2022-10-31T07:05:41;14.90;;;9.30;;
23288;SDS011;11813;50.834;4.280;2022-10-31T07:08:09;14.90;;;9.33;;
23288;SDS011;11813;50.834;4.280;2022-10-31T07:10:37;14.63;;;9.30;;
23288;SDS011;11813;50.834;4.280;2022-10-31T07:13:04;18.77;;;9.93;;
23288;SDS011;11813;50.834;4.280;2022-10-31T07:15:36;27.97;;;11.07;;
23288;SDS011;11813;50.834;4.280;2022-10-31T07:18:06;17.57;;;10.40;;
23288;SDS011;11813;50.834;4.280;2022-10-31T07:20:33;17.63;;;10.27;;
23288;SDS011;11813;50.834;4.280;2022-10-31T07:22:58;23.33;;;11.23;;
23288;SDS011;11813;50.834;4.280;2022-10-31T07:25:25;20.47;;;11.03;;
23288;SDS011;11813;50.834;4.280;2022-10-31T07:27:51;22.33;;;11.13;;
23288;SDS011;11813;50.834;4.280;2022-10-31T07:30:16;24.17;;;10.53;;
23288;SDS011;11813;50.834;4.280;2022-10-31T07:32:44;21.67;;;12.53;;
23288;SDS011;11813;50.834;4.280;2022-10-31T07:35:22;23.70;;;11.53;;
23288;SDS011;11813;50.834;4.280;2022-10-31T07:37:49;22.93;;;10.90;;
23288;SDS011;11813;50.834;4.280;2022-10-31T07:40:15;20.07;;;11.30;;
23288;SDS011;11813;50.834;4.280;2022-10-31T07:42:42;17.97;;;10.63;;
23288;SDS011;11813;50.834;4.280;2022-10-31T07:45:14;20.87;;;10.47;;
23288;SDS011;11813;50.834;4.280;2022-10-31T07:47:42;19.33;;;11.20;;
23288;SDS011;11813;50.834;4.280;2022-10-31T07:50:21;20.03;;;11.10;;
23288;SDS011;11813;50.834;4.280;2022-10-31T07:53:05;20.13;;;11.97;;
23288;SDS011;11813;50.834;4.280;2022-10-31T07:55:32;25.40;;;12.60;;
23288;SDS011;11813;50.834;4.280;2022-10-31T07:57:59;34.37;;;14.03;;
23288;SDS011;11813;50.834;4.280;2022-10-31T08:00:27;29.70;;;13.57;;
23288;SDS011;11813;50.834;4.280;2022-10-31T08:02:59;29.43;;;13.63;;
23288;SDS011;11813;50.834;4.280;2022-10-31T08:05:26;31.40;;;13.53;;
23288;SDS011;11813;50.834;4.280;2022-10-31T08:07:53;25.67;;;13.33;;
23288;SDS011;11813;50.834;4.280;2022-10-31T08:10:19;18.57;;;12.70;;
23288;SDS011;11813;50.834;4.280;2022-10-31T08:12:45;25.63;;;13.20;;
23288;SDS011;11813;50.834;4.280;2022-10-31T08:15:10;23.77;;;12.57;;
23288;SDS011;11813;50.834;4.280;2022-10-31T08:17:36;20.97;;;12.63;;
23288;SDS011;11813;50.834;4.280;2022-10-31T08:20:02;30.07;;;12.77;;
23288;SDS011;11813;50.834;4.280;2022-10-31T08:22:29;19.83;;;12.57;;
23288;SDS011;11813;50.834;4.280;2022-10-31T08:24:54;24.53;;;12.83;;
23288;SDS011;11813;50.834;4.280;2022-10-31T08:27:20;18.87;;;12.57;;
23288;SDS011;11813;50.834;4.280;2022-10-31T08:29:45;19.77;;;12.57;;
23288;SDS011;11813;50.834;4.280;2022-10-31T08:32:11;20.40;;;12.27;;
23288;SDS011;11813;50.834;4.280;2022-10-31T08:34:37;23.70;;;13.87;;
23288;SDS011;11813;50.834;4.280;2022-10-31T08:37:02;24.50;;;12.83;;
23288;SDS011;11813;50.834;4.280;2022-10-31T08:39:28;24.00;;;13.00;;
23288;SDS011;11813;50.834;4.280;2022-10-31T08:41:53;17.97;;;12.13;;
23288;SDS011;11813;50.834;4.280;2022-10-31T08:44:19;21.37;;;12.53;;
23288;SDS011;11813;50.834;4.280;2022-10-31T08:46:44;25.63;;;11.80;;
23288;SDS011;11813;50.834;4.280;2022-10-31T08:49:10;22.83;;;12.30;;
23288;SDS011;11813;50.834;4.280;2022-10-31T08:51:36;22.80;;;11.90;;
23288;SDS011;11813;50.834;4.280;2022-10-31T08:54:01;22.40;;;12.23;;
23288;SDS011;11813;50.834;4.280;2022-10-31T08:56:27;19.37;;;11.67;;
23288;SDS011;11813;50.834;4.280;2022-10-31T08:58:53;20.13;;;11.90;;
23288;SDS011;11813;50.834;4.280;2022-10-31T09:01:18;23.70;;;12.00;;
23288;SDS011;11813;50.834;4.280;2022-10-31T09:03:44;20.57;;;11.03;;
23288;SDS011;11813;50.834;4.280;2022-10-31T09:06:09;18.63;;;11.30;;
23288;SDS011;11813;50.834;4.280;2022-10-31T09:08:35;19.23;;;12.30;;
23288;SDS011;11813;50.834;4.280;2022-10-31T09:11:02;30.10;;;12.00;;
23288;SDS011;11813;50.834;4.280;2022-10-31T09:13:28;16.40;;;9.63;;
23288;SDS011;11813;50.834;4.280;2022-10-31T09:15:55;17.20;;;10.50;;
23288;SDS011;11813;50.834;4.280;2022-10-31T09:18:22;17.47;;;10.13;;
23288;SDS011;11813;50.834;4.280;2022-10-31T09:20:49;17.10;;;9.60;;
23288;SDS011;11813;50.834;4.280;2022-10-31T09:23:16;15.50;;;9.27;;
23288;SDS011;11813;50.834;4.280;2022-10-31T09:25:43;13.93;;;7.50;;
23288;SDS011;11813;50.834;4.280;2022-10-31T09:28:11;16.67;;;7.87;;
23288;SDS011;11813;50.834;4.280;2022-10-31T09:30:37;11.57;;;8.03;;
23288;SDS011;11813;50.834;4.280;2022-10-31T09:33:04;15.00;;;8.07;;
23288;SDS011;11813;50.834;4.280;2022-10-31T09:35:37;10.70;;;7.40;;
23288;SDS011;11813;50.834;4.280;2022-10-31T09:38:08;13.53;;;8.13;;
23288;SDS011;11813;50.834;4.280;2022-10-31T09:40:43;14.07;;;7.53;;
23288;SDS011;11813;50.834;4.280;2022-10-31T09:43:31;13.50;;;7.47;;
23288;SDS011;11813;50.834;4.280;2022-10-31T09:51:59;10.90;;;7.13;;
23288;SDS011;11813;50.834;4.280;2022-10-31T09:54:40;12.20;;;7.03;;
23288;SDS011;11813;50.834;4.280;2022-10-31T09:57:17;12.83;;;7.07;;
23288;SDS011;11813;50.834;4.280;2022-10-31T09:59:49;14.43;;;7.70;;
23288;SDS011;11813;50.834;4.280;2022-10-31T10:02:17;14.67;;;8.10;;
23288;SDS011;11813;50.834;4.280;2022-10-31T10:04:51;15.10;;;8.40;;
23288;SDS011;11813;50.834;4.280;2022-10-31T10:07:27;13.00;;;7.47;;
23288;SDS011;11813;50.834;4.280;2022-10-31T10:10:00;14.27;;;7.40;;
23288;SDS011;11813;50.834;4.280;2022-10-31T10:12:43;15.97;;;7.03;;
23288;SDS011;11813;50.834;4.280;2022-10-31T10:16:22;11.20;;;6.73;;
23288;SDS011;11813;50.834;4.280;2022-10-31T10:26:30;12.17;;;6.00;;
23288;SDS011;11813;50.834;4.280;2022-10-31T10:32:30;14.53;;;7.93;;
23288;SDS011;11813;50.834;4.280;2022-10-31T10:35:10;13.77;;;7.73;;
23288;SDS011;11813;50.834;4.280;2022-10-31T10:37:44;14.60;;;8.40;;
23288;SDS011;11813;50.834;4.280;2022-10-31T10:40:21;16.57;;;7.23;;
23288;SDS011;11813;50.834;4.280;2022-10-31T10:45:37;17.30;;;8.00;;
23288;SDS011;11813;50.834;4.280;2022-10-31T10:48:28;14.07;;;8.00;;
23288;SDS011;11813;50.834;4.280;2022-10-31T10:51:04;19.53;;;7.73;;
23288;SDS011;11813;50.834;4.280;2022-10-31T10:53:39;22.07;;;8.87;;
23288;SDS011;11813;50.834;4.280;2022-10-31T10:56:31;20.43;;;9.43;;
23288;SDS011;11813;50.834;4.280;2022-10-31T10:59:22;17.77;;;9.17;;
23288;SDS011;11813;50.834;4.280;2022-10-31T11:01:48;21.43;;;10.10;;
23288;SDS011;11813;50.834;4.280;2022-10-31T11:04:30;26.43;;;10.20;;
23288;SDS011;11813;50.834;4.280;2022-10-31T11:07:07;25.90;;;10.37;;
23288;SDS011;11813;50.834;4.280;2022-10-31T11:09:34;13.87;;;9.50;;
23288;SDS011;11813;50.834;4.280;2022-10-31T11:12:11;17.30;;;10.30;;
23288;SDS011;11813;50.834;4.280;2022-10-31T11:14:48;21.67;;;10.03;;
23288;SDS011;11813;50.834;4.280;2022-10-31T11:17:25;20.57;;;9.30;;
23288;SDS011;11813;50.834;4.280;2022-10-31T11:22:42;16.47;;;8.77;;
23288;SDS011;11813;50.834;4.280;2022-10-31T11:27:57;19.57;;;9.30;;
23288;SDS011;11813;50.834;4.280;2022-10-31T11:30:24;19.43;;;8.40;;
23288;SDS011;11813;50.834;4.280;2022-10-31T11:32:50;13.77;;;7.85;;
23288;SDS011;11813;50.834;4.280;2022-10-31T11:35:17;14.47;;;9.27;;
23288;SDS011;11813;50.834;4.280;2022-10-31T11:37:45;19.03;;;7.93;;
23288;SDS011;11813;50.834;4.280;2022-10-31T11:40:17;18.58;;;8.38;;
23288;SDS011;11813;50.834;4.280;2022-10-31T11:42:48;15.88;;;8.73;;
23288;SDS011;11813;50.834;4.280;2022-10-31T11:45:16;13.25;;;8.15;;
23288;SDS011;11813;50.834;4.280;2022-10-31T11:47:45;18.65;;;9.07;;
23288;SDS011;11813;50.834;4.280;2022-10-31T11:50:23;21.05;;;7.88;;
23288;SDS011;11813;50.834;4.280;2022-10-31T11:52:52;18.00;;;9.00;;
23288;SDS011;11813;50.834;4.280;2022-10-31T11:55:35;14.43;;;6.95;;
23288;SDS011;11813;50.834;4.280;2022-10-31T11:58:03;14.23;;;7.05;;
23288;SDS011;11813;50.834;4.280;2022-10-31T12:00:38;13.55;;;7.78;;
23288;SDS011;11813;50.834;4.280;2022-10-31T12:03:14;16.67;;;7.43;;
23288;SDS011;11813;50.834;4.280;2022-10-31T12:06:06;13.32;;;7.60;;
23288;SDS011;11813;50.834;4.280;2022-10-31T12:08:39;16.13;;;7.80;;
23288;SDS011;11813;50.834;4.280;2022-10-31T12:19:32;14.52;;;7.78;;
23288;SDS011;11813;50.834;4.280;2022-10-31T12:27:41;11.35;;;7.05;;
23288;SDS011;11813;50.834;4.280;2022-10-31T12:30:20;17.70;;;6.75;;
23288;SDS011;11813;50.834;4.280;2022-10-31T12:32:58;13.95;;;6.10;;
23288;SDS011;11813;50.834;4.280;2022-10-31T12:38:17;20.58;;;7.30;;
23288;SDS011;11813;50.834;4.280;2022-10-31T12:46:29;14.13;;;6.30;;
23288;SDS011;11813;50.834;4.280;2022-10-31T12:54:50;12.45;;;6.43;;
23288;SDS011;11813;50.834;4.280;2022-10-31T12:57:44;13.13;;;6.68;;
23288;SDS011;11813;50.834;4.280;2022-10-31T13:00:18;11.32;;;5.80;;
23288;SDS011;11813;50.834;4.280;2022-10-31T13:02:58;13.02;;;6.70;;
23288;SDS011;11813;50.834;4.280;2022-10-31T13:10:49;13.38;;;5.43;;
23288;SDS011;11813;50.834;4.280;2022-10-31T13:16:23;12.90;;;5.90;;
23288;SDS011;11813;50.834;4.280;2022-10-31T13:18:54;10.73;;;5.50;;
23288;SDS011;11813;50.834;4.280;2022-10-31T13:21:30;12.43;;;5.35;;
23288;SDS011;11813;50.834;4.280;2022-10-31T13:24:07;12.10;;;5.75;;
23288;SDS011;11813;50.834;4.280;2022-10-31T13:26:42;17.88;;;6.25;;
23288;SDS011;11813;50.834;4.280;2022-10-31T13:31:56;15.80;;;6.15;;
23288;SDS011;11813;50.834;4.280;2022-10-31T13:45:46;12.77;;;5.22;;
23288;SDS011;11813;50.834;4.280;2022-10-31T13:48:19;16.42;;;5.50;;
23288;SDS011;11813;50.834;4.280;2022-10-31T13:51:07;14.98;;;5.82;;
23288;SDS011;11813;50.834;4.280;2022-10-31T13:59:01;12.60;;;5.65;;
23288;SDS011;11813;50.834;4.280;2022-10-31T14:02:00;25.70;;;6.43;;
23288;SDS011;11813;50.834;4.280;2022-10-31T14:07:09;16.75;;;5.82;;
23288;SDS011;11813;50.834;4.280;2022-10-31T14:09:39;16.05;;;5.97;;
23288;SDS011;11813;50.834;4.280;2022-10-31T14:15:38;17.15;;;6.00;;
23288;SDS011;11813;50.834;4.280;2022-10-31T14:18:36;21.77;;;6.45;;
23288;SDS011;11813;50.834;4.280;2022-10-31T14:23:47;10.93;;;5.25;;
23288;SDS011;11813;50.834;4.280;2022-10-31T14:28:48;13.60;;;5.45;;
23288;SDS011;11813;50.834;4.280;2022-10-31T14:45:14;8.90;;;4.78;;
23288;SDS011;11813;50.834;4.280;2022-10-31T14:53:26;14.15;;;5.55;;
23288;SDS011;11813;50.834;4.280;2022-10-31T14:55:55;12.40;;;4.90;;
23288;SDS011;11813;50.834;4.280;2022-10-31T14:58:24;16.92;;;5.18;;
23288;SDS011;11813;50.834;4.280;2022-10-31T15:01:02;14.07;;;5.00;;
23288;SDS011;11813;50.834;4.280;2022-10-31T15:05:59;9.30;;;4.13;;
23288;SDS011;11813;50.834;4.280;2022-10-31T15:08:38;10.27;;;4.55;;
23288;SDS011;11813;50.834;4.280;2022-10-31T15:11:11;11.57;;;4.63;;
23288;SDS011;11813;50.834;4.280;2022-10-31T15:13:46;14.32;;;5.93;;
23288;SDS011;11813;50.834;4.280;2022-10-31T15:16:15;11.13;;;4.93;;
23288;SDS011;11813;50.834;4.280;2022-10-31T15:19:05;12.45;;;5.15;;
23288;SDS011;11813;50.834;4.280;2022-10-31T15:21:42;13.63;;;4.68;;
23288;SDS011;11813;50.834;4.280;2022-10-31T15:24:12;11.27;;;5.10;;
23288;SDS011;11813;50.834;4.280;2022-10-31T15:26:43;10.38;;;4.65;;
23288;SDS011;11813;50.834;4.280;2022-10-31T15:29:12;14.75;;;4.88;;
23288;SDS011;11813;50.834;4.280;2022-10-31T15:31:55;15.00;;;5.10;;
23288;SDS011;11813;50.834;4.280;2022-10-31T15:34:57;10.30;;;4.88;;
23288;SDS011;11813;50.834;4.280;2022-10-31T15:37:17;13.75;;;5.50;;
23288;SDS011;11813;50.834;4.280;2022-10-31T15:39:45;13.40;;;4.82;;
23288;SDS011;11813;50.834;4.280;2022-10-31T15:42:18;17.00;;;5.85;;
23288;SDS011;11813;50.834;4.280;2022-10-31T15:44:44;11.52;;;5.05;;
23288;SDS011;11813;50.834;4.280;2022-10-31T15:47:18;10.15;;;5.10;;
23288;SDS011;11813;50.834;4.280;2022-10-31T15:49:52;12.05;;;5.90;;
23288;SDS011;11813;50.834;4.280;2022-10-31T15:52:24;11.35;;;5.20;;
23288;SDS011;11813;50.834;4.280;2022-10-31T15:55:21;16.23;;;5.93;;
23288;SDS011;11813;50.834;4.280;2022-10-31T15:57:52;15.40;;;5.95;;
23288;SDS011;11813;50.834;4.280;2022-10-31T16:05:48;11.48;;;5.70;;
23288;SDS011;11813;50.834;4.280;2022-10-31T16:10:49;12.80;;;6.28;;
23288;SDS011;11813;50.834;4.280;2022-10-31T16:13:15;11.23;;;6.07;;
23288;SDS011;11813;50.834;4.280;2022-10-31T16:15:51;17.23;;;6.78;;
23288;SDS011;11813;50.834;4.280;2022-10-31T16:18:20;16.15;;;6.70;;
23288;SDS011;11813;50.834;4.280;2022-10-31T16:20:50;15.18;;;6.35;;
23288;SDS011;11813;50.834;4.280;2022-10-31T16:23:18;17.42;;;7.13;;
23288;SDS011;11813;50.834;4.280;2022-10-31T16:25:45;13.75;;;7.15;;
23288;SDS011;11813;50.834;4.280;2022-10-31T16:28:16;11.52;;;5.88;;
23288;SDS011;11813;50.834;4.280;2022-10-31T16:30:45;16.80;;;6.20;;
23288;SDS011;11813;50.834;4.280;2022-10-31T16:38:54;13.30;;;6.28;;
23288;SDS011;11813;50.834;4.280;2022-10-31T16:41:20;17.73;;;6.88;;
23288;SDS011;11813;50.834;4.280;2022-10-31T16:43:46;16.45;;;6.28;;
23288;SDS011;11813;50.834;4.280;2022-10-31T16:46:15;16.08;;;6.68;;
23288;SDS011;11813;50.834;4.280;2022-10-31T16:48:46;24.75;;;6.65;;
23288;SDS011;11813;50.834;4.280;2022-10-31T16:51:12;15.77;;;6.43;;
23288;SDS011;11813;50.834;4.280;2022-10-31T16:53:38;15.27;;;6.97;;
23288;SDS011;11813;50.834;4.280;2022-10-31T16:56:03;13.52;;;6.70;;
23288;SDS011;11813;50.834;4.280;2022-10-31T16:58:30;14.88;;;7.53;;
23288;SDS011;11813;50.834;4.280;2022-10-31T17:01:01;12.38;;;6.47;;
23288;SDS011;11813;50.834;4.280;2022-10-31T17:03:29;16.25;;;6.43;;
23288;SDS011;11813;50.834;4.280;2022-10-31T17:05:55;13.35;;;7.00;;
23288;SDS011;11813;50.834;4.280;2022-10-31T17:08:21;18.85;;;6.20;;
23288;SDS011;11813;50.834;4.280;2022-10-31T17:10:50;16.63;;;6.75;;
23288;SDS011;11813;50.834;4.280;2022-10-31T17:13:18;17.65;;;6.13;;
23288;SDS011;11813;50.834;4.280;2022-10-31T17:15:47;15.45;;;5.72;;
23288;SDS011;11813;50.834;4.280;2022-10-31T17:18:15;21.33;;;6.80;;
23288;SDS011;11813;50.834;4.280;2022-10-31T17:20:41;16.37;;;5.97;;
23288;SDS011;11813;50.834;4.280;2022-10-31T17:23:09;9.10;;;5.53;;
23288;SDS011;11813;50.834;4.280;2022-10-31T17:25:35;15.20;;;5.67;;
23288;SDS011;11813;50.834;4.280;2022-10-31T17:28:01;13.50;;;5.80;;
23288;SDS011;11813;50.834;4.280;2022-10-31T17:30:27;17.50;;;5.27;;
23288;SDS011;11813;50.834;4.280;2022-10-31T17:32:52;11.13;;;5.60;;
23288;SDS011;11813;50.834;4.280;2022-10-31T17:35:19;19.33;;;5.50;;